Sunday, September 25, 2016, 4:46 PM EDT

KPOU, Poughkeepsie Dutchess Cty

Location: Wappingers Falls, NY, United States Lat: 41.633
Local Time: 4:46 PM EDT (20:46 GMT) Lon: -73.883
Time Zone: US/Eastern Elev: 167 ft

Show me the last for .
Show Decoded

2016-09-25 15:53 METAR KPOU 251953Z AUTO 34003KT 10SM CLR 20/M02 A3012 RMK AO2 SLP196 T02001022 =
2016-09-25 14:53 METAR KPOU 251853Z 00000KT 10SM CLR 19/M01 A3013 RMK AO2 SLP201 T01891011 =
2016-09-25 13:53 METAR KPOU 251753Z VRB05G18KT 10SM CLR 18/00 A3016 RMK AO2 SLP209 T01780000
                 10189 20056 58017 =
2016-09-25 12:53 METAR KPOU 251653Z 36007G15KT 10SM CLR 18/00 A3018 RMK AO2 SLP217 T01780000 =
2016-09-25 11:53 METAR KPOU 251553Z 30007G15KT 10SM CLR 16/00 A3020 RMK AO2 SLP223 T01610000 =
2016-09-25 10:53 METAR KPOU 251453Z 35005KT 10SM CLR 15/03 A3021 RMK AO2 SLP227 T01500028 58000 =
2016-09-25 09:53 METAR KPOU 251353Z 04008KT 10SM CLR 12/04 A3021 RMK AO2 SLP227 T01220039 =
2016-09-25 08:53 METAR KPOU 251253Z 36004KT 10SM CLR 11/06 A3021 RMK AO2 SLP228 T01060056 =
2016-09-25 07:53 METAR KPOU 251153Z 00000KT 10SM CLR 06/04 A3021 RMK AO2 SLP227 T00560039 10061
                 20022 51013 =
2016-09-25 06:53 METAR KPOU 251053Z 00000KT 10SM CLR 02/02 A3020 RMK AO2 SLP225 T00220017 =
2016-09-25 05:53 METAR KPOU 250953Z AUTO 00000KT 10SM CLR 03/03 A3019 RMK AO2 SLP219 T00330028 =
2016-09-25 04:53 METAR KPOU 250853Z AUTO 00000KT 10SM CLR 03/03 A3017 RMK AO2 SLP213 T00330028
                 53002 =
2016-09-25 03:53 METAR KPOU 250753Z AUTO 00000KT 10SM CLR 04/04 A3016 RMK AO2 SLP211 T00440039 =
2016-09-25 02:53 METAR KPOU 250653Z AUTO 00000KT 10SM CLR 05/04 A3017 RMK AO2 SLP212 T00500039 =
2016-09-25 01:53 METAR KPOU 250553Z AUTO 00000KT 10SM CLR 06/05 A3016 RMK AO2 SLP211 T00610050
                 10128 20056 53002 =
2016-09-25 00:53 METAR KPOU 250453Z AUTO 00000KT 10SM CLR 06/04 A3016 RMK AO2 SLP209 T00560044
                 402110056 =
2016-09-24 23:53 METAR KPOU 250353Z AUTO 11003KT 10SM CLR 07/06 A3016 RMK AO2 SLP209 T00720056 =
2016-09-24 22:53 METAR KPOU 250253Z AUTO 00000KT 10SM CLR 08/06 A3016 RMK AO2 SLP209 T00780056
                 51013 =
2016-09-24 21:53 METAR KPOU 250153Z AUTO 00000KT 10SM CLR 09/06 A3015 RMK AO2 SLP206 T00890061 =
2016-09-24 20:53 METAR KPOU 250053Z AUTO 00000KT 10SM CLR 11/07 A3014 RMK AO2 SLP202 T01110067 =
2016-09-24 19:53 METAR KPOU 242353Z 00000KT 10SM CLR 13/07 A3012 RMK AO2 SLP197 T01280072 10211
                 20128 53015 =
2016-09-24 18:53 METAR KPOU 242253Z 05004KT 10SM CLR 17/05 A3010 RMK AO2 SLP190 T01670050 =
2016-09-24 17:53 METAR KPOU 242153Z 04009KT 10SM CLR 19/04 A3008 RMK AO2 SLP184 T01890044 =
2016-09-24 16:53 METAR KPOU 242053Z 01007KT 10SM FEW060 20/04 A3008 RMK AO2 SLP182 T02000039
                 56010 =

Support USWX by starting your Amazon purchase here.